createdAt,value
2024-04-02T00:03:26.281Z,48
2024-04-02T00:08:28.622Z,48
2024-04-02T00:13:30.746Z,48
2024-04-02T00:18:32.882Z,48
2024-04-02T00:23:35.025Z,48
2024-04-02T00:28:37.404Z,48
2024-04-02T00:33:39.529Z,48
2024-04-02T00:38:41.892Z,48
2024-04-02T00:43:44.164Z,48
2024-04-02T00:48:46.281Z,48
2024-04-02T00:53:48.617Z,49
2024-04-02T00:58:50.860Z,49
2024-04-02T01:03:52.920Z,49
2024-04-02T01:08:55.235Z,49
2024-04-02T01:13:57.447Z,49
2024-04-02T01:18:59.492Z,49
2024-04-02T01:24:01.722Z,49
2024-04-02T01:29:03.907Z,50
2024-04-02T01:34:06.020Z,50
2024-04-02T01:39:08.209Z,50
2024-04-02T01:44:10.635Z,50
2024-04-02T01:49:12.925Z,50
2024-04-02T01:54:15.127Z,50
2024-04-02T01:59:17.262Z,50
2024-04-02T02:04:19.516Z,50
2024-04-02T02:09:21.627Z,50
2024-04-02T02:14:23.792Z,50
2024-04-02T02:19:25.912Z,50
2024-04-02T02:24:28.053Z,50
2024-04-02T02:29:30.208Z,50
2024-04-02T02:34:32.325Z,50
2024-04-02T02:39:34.479Z,50
2024-04-02T02:44:36.638Z,50
2024-04-02T02:49:38.774Z,50
2024-04-02T02:54:40.904Z,50
2024-04-02T02:59:43.056Z,50
2024-04-02T03:04:45.410Z,50
2024-04-02T03:09:47.542Z,50
2024-04-02T03:14:49.707Z,50
2024-04-02T03:19:51.842Z,50
2024-04-02T03:24:54.006Z,50
2024-04-02T03:29:56.153Z,50
2024-04-02T03:34:58.281Z,50
2024-04-02T03:40:00.418Z,50
2024-04-02T03:45:02.589Z,50
2024-04-02T03:50:04.704Z,50
2024-04-02T03:55:06.850Z,50
2024-04-02T04:00:09.002Z,50
2024-04-02T04:05:11.127Z,50
2024-04-02T04:10:13.546Z,50
2024-04-02T04:15:15.812Z,50
2024-04-02T04:20:17.934Z,50
2024-04-02T04:25:20.162Z,50
2024-04-02T04:30:22.318Z,50
2024-04-02T04:35:24.654Z,50
2024-04-02T04:40:26.898Z,50
2024-04-02T04:45:29.317Z,51
2024-04-02T04:50:31.550Z,51
2024-04-02T04:55:33.966Z,51
2024-04-02T05:00:36.278Z,51
2024-04-02T05:05:38.374Z,51
2024-04-02T05:10:40.719Z,51
2024-04-02T05:15:42.928Z,51
2024-04-02T05:20:45.038Z,51
2024-04-02T05:25:47.399Z,52
2024-04-02T05:30:49.738Z,52
2024-04-02T05:35:51.801Z,53
2024-04-02T05:40:54.202Z,53
2024-04-02T05:45:56.294Z,52
2024-04-02T05:50:58.406Z,52
2024-04-02T05:56:00.673Z,51
2024-04-02T06:01:03.033Z,51
2024-04-02T06:06:05.120Z,50
2024-04-02T06:11:07.437Z,49
2024-04-02T06:16:09.535Z,48
2024-04-02T06:21:11.866Z,47
2024-04-02T06:26:14.191Z,47
2024-04-02T06:31:16.334Z,46
2024-04-02T06:36:18.452Z,46
2024-04-02T06:41:21.974Z,46
2024-04-02T06:46:24.115Z,47
2024-04-02T06:51:26.221Z,47
2024-04-02T06:56:28.359Z,47
2024-04-02T07:01:30.726Z,47
2024-04-02T07:06:33.036Z,47
2024-04-02T07:11:35.201Z,47
2024-04-02T07:16:37.468Z,47
2024-04-02T07:21:39.700Z,48
2024-04-02T07:26:41.893Z,48
2024-04-02T07:31:44.163Z,48
2024-04-02T07:36:46.297Z,48
2024-04-02T07:41:48.516Z,48
2024-04-02T07:46:50.824Z,49
2024-04-02T07:51:53.044Z,49
2024-04-02T07:56:55.170Z,49
2024-04-02T08:01:57.331Z,49
2024-04-02T08:06:59.447Z,50
2024-04-02T08:12:01.667Z,50
2024-04-02T08:17:03.822Z,50
2024-04-02T08:22:05.944Z,50
2024-04-02T08:27:08.255Z,50
2024-04-02T08:32:11.314Z,50
2024-04-02T08:37:12.590Z,50
2024-04-02T08:42:17.402Z,50
2024-04-02T08:47:17.153Z,50
2024-04-02T08:52:19.177Z,51
2024-04-02T08:57:21.719Z,51
2024-04-02T09:02:23.972Z,51
2024-04-02T09:07:26.069Z,51
2024-04-02T09:12:28.419Z,51
2024-04-02T09:17:30.538Z,51
2024-04-02T09:22:32.644Z,51
2024-04-02T09:27:34.918Z,51
2024-04-02T09:32:37.227Z,51
2024-04-02T09:37:39.295Z,51
2024-04-02T09:42:41.572Z,51
2024-04-02T09:47:43.726Z,51
2024-04-02T09:52:45.836Z,51
2024-04-02T09:57:48.201Z,51
2024-04-02T10:02:50.578Z,50
2024-04-02T10:07:52.698Z,50
2024-04-02T10:12:55.001Z,49
2024-04-02T10:17:57.106Z,48
2024-04-02T10:22:59.219Z,48
2024-04-02T10:28:01.590Z,47
2024-04-02T10:33:03.853Z,47
2024-04-02T10:38:06.295Z,47
2024-04-02T10:43:08.537Z,47
2024-04-02T10:48:10.717Z,47
2024-04-02T10:53:12.786Z,47
2024-04-02T10:58:14.990Z,47
2024-04-02T11:03:17.136Z,47
2024-04-02T11:08:19.273Z,47
2024-04-02T11:13:21.418Z,47
2024-04-02T11:18:25.617Z,48
2024-04-02T11:23:25.700Z,48
2024-04-02T11:28:27.852Z,48
2024-04-02T11:33:30.019Z,49
2024-04-02T11:38:32.166Z,49
2024-04-02T11:43:34.304Z,50
2024-04-02T11:48:36.501Z,50
2024-04-02T11:53:38.577Z,50
2024-04-02T11:58:40.751Z,50
2024-04-02T12:03:42.888Z,50
2024-04-02T12:08:45.004Z,50
2024-04-02T12:13:47.146Z,50
2024-04-02T12:18:49.451Z,50
2024-04-02T12:23:51.437Z,50
2024-04-02T12:28:53.582Z,50
2024-04-02T12:33:55.742Z,50
2024-04-02T12:38:57.863Z,50
2024-04-02T12:44:00.041Z,50
2024-04-02T12:49:08.179Z,50
2024-04-02T12:54:04.504Z,50
2024-04-02T12:59:06.645Z,50
2024-04-02T13:04:08.809Z,50
2024-04-02T13:09:11.007Z,51
2024-04-02T13:14:13.136Z,51
2024-04-02T13:19:15.284Z,51
2024-04-02T13:24:17.451Z,51
2024-04-02T13:29:19.676Z,51
2024-04-02T13:34:21.770Z,51
2024-04-02T13:39:23.885Z,50
2024-04-02T13:44:26.006Z,50
2024-04-02T13:49:28.163Z,51
2024-04-02T13:54:30.285Z,51
2024-04-02T13:59:32.415Z,51
2024-04-02T14:04:35.002Z,51
2024-04-02T14:09:37.090Z,51
2024-04-02T14:14:39.246Z,51
2024-04-02T14:19:41.569Z,51
2024-04-02T14:24:43.522Z,51
2024-04-02T14:29:46.757Z,51
2024-04-02T14:34:49.031Z,51
2024-04-02T14:39:51.133Z,51
2024-04-02T14:44:53.385Z,51
2024-04-02T14:49:55.553Z,51
2024-04-02T14:54:57.648Z,51
2024-04-02T14:59:59.794Z,51
2024-04-02T15:05:02.187Z,51
2024-04-02T15:10:04.171Z,52
2024-04-02T15:15:06.346Z,51
2024-04-02T15:20:08.492Z,51
2024-04-02T15:25:10.608Z,51
2024-04-02T15:30:12.738Z,50
2024-04-02T15:35:14.995Z,49
2024-04-02T15:40:17.097Z,49
2024-04-02T15:45:19.466Z,48
2024-04-02T15:50:21.547Z,48
2024-04-02T15:55:23.662Z,48
2024-04-02T16:00:25.806Z,48
2024-04-02T16:05:27.955Z,48
2024-04-02T16:10:30.294Z,48
2024-04-02T16:15:32.430Z,48
2024-04-02T16:20:34.534Z,48
2024-04-02T16:25:36.695Z,49
2024-04-02T16:30:38.823Z,49
2024-04-02T16:35:41.007Z,49
2024-04-02T16:40:43.102Z,50
2024-04-02T16:45:45.318Z,50
2024-04-02T16:50:47.456Z,50
2024-04-02T16:55:49.583Z,50
2024-04-02T17:00:51.715Z,50
2024-04-02T17:05:53.902Z,50
2024-04-02T17:10:56.163Z,50
2024-04-02T17:15:58.400Z,50
2024-04-02T17:21:00.539Z,50
2024-04-02T17:26:02.741Z,51
2024-04-02T17:31:05.094Z,51
2024-04-02T17:36:07.251Z,51
2024-04-02T17:41:09.488Z,52
2024-04-02T17:46:12.295Z,53
2024-04-02T17:51:13.834Z,53
2024-04-02T17:56:16.282Z,53
2024-04-02T18:01:18.643Z,53
2024-04-02T18:06:20.752Z,53
2024-04-02T18:11:23.156Z,53
2024-04-02T18:16:25.279Z,53
2024-04-02T18:21:27.446Z,53
2024-04-02T18:26:29.573Z,53
2024-04-02T18:31:31.737Z,53
2024-04-02T18:36:33.923Z,52
2024-04-02T18:41:36.181Z,52
2024-04-02T18:46:38.331Z,52
2024-04-02T18:51:40.482Z,52
2024-04-02T18:56:42.820Z,52
2024-04-02T19:01:45.025Z,52
2024-04-02T19:06:47.344Z,52
2024-04-02T19:11:49.470Z,52
2024-04-02T19:16:51.575Z,52
2024-04-02T19:21:53.931Z,52
2024-04-02T19:26:56.195Z,52
2024-04-02T19:31:58.311Z,52
2024-04-02T19:37:00.474Z,51
2024-04-02T19:42:02.786Z,51
2024-04-02T19:47:04.902Z,51
2024-04-02T19:52:07.194Z,51
2024-04-02T19:57:09.551Z,51
2024-04-02T20:02:11.868Z,51
2024-04-02T20:07:14.013Z,51
2024-04-02T20:12:16.294Z,51
2024-04-02T20:17:18.452Z,51
2024-04-02T20:22:20.764Z,51
2024-04-02T20:27:23.080Z,51
2024-04-02T20:32:25.341Z,51
2024-04-02T20:37:27.490Z,51
2024-04-02T20:42:29.803Z,51
2024-04-02T20:47:31.976Z,51
2024-04-02T20:52:34.168Z,51
2024-04-02T20:57:36.492Z,51
2024-04-02T21:02:38.591Z,51
2024-04-02T21:07:40.854Z,51
2024-04-02T21:12:43.054Z,51
2024-04-02T21:17:45.357Z,51
2024-04-02T21:22:47.722Z,51
2024-04-02T21:27:49.857Z,51
2024-04-02T21:32:52.307Z,51
2024-04-02T21:37:54.458Z,51
2024-04-02T21:42:56.855Z,51
2024-04-02T21:47:59.139Z,51
2024-04-02T21:53:01.481Z,51
2024-04-02T21:58:03.704Z,51
2024-04-02T22:03:06.002Z,51
2024-04-02T22:08:08.304Z,52
2024-04-02T22:13:10.514Z,52
2024-04-02T22:18:12.660Z,52
2024-04-02T22:23:15.101Z,52
2024-04-02T22:28:17.371Z,52
2024-04-02T22:33:19.719Z,52
2024-04-02T22:38:22.032Z,52
2024-04-02T22:43:24.321Z,52
2024-04-02T22:48:26.530Z,52
2024-04-02T22:53:28.687Z,52
2024-04-02T22:58:30.962Z,52
2024-04-02T23:03:33.333Z,52
2024-04-02T23:08:35.636Z,52
2024-04-02T23:13:37.648Z,52
2024-04-02T23:18:40.079Z,52
2024-04-02T23:23:42.183Z,52
2024-04-02T23:28:44.573Z,52
2024-04-02T23:33:46.771Z,52
2024-04-02T23:38:49.001Z,52
2024-04-02T23:43:51.057Z,52
2024-04-02T23:48:53.545Z,52
2024-04-02T23:53:55.636Z,52
2024-04-02T23:58:58.027Z,52
